Yuukimaru No.8 — JD2477 — position and weather

sailwx.info

Track history (hours):
 
Tides and Currents Weather Stations Pressure Air Temp Water Temp Dewpoint Dewpoint Depression Visibility Wind Speed Wind Dir Waves Ship Positions

Yuukimaru No.8

Last reported at 2018-Jun-18 22:29 UTC. Time now 2018-Jun-18 22:39 UTC.
Position N 34°35' E 135°27'.

Length 75 m; draft 4.7 m.

Type: Ship (hazmat cat D). MMSI: 431000298.

Date/timePositionNaut miles runAvg speedWind from/ knotsBaromVisibWave heightAir tempDewpointWater temp
2018-Jun-18 22:29N 34°35' E 135°27'0 0.0
2018-Jun-18 22:00N 34°35' E 135°27'0 0.0
2018-Jun-18 21:30N 34°35' E 135°27'0 0.0
2018-Jun-18 21:00N 34°35' E 135°27'0 0.0
2018-Jun-18 20:30N 34°35' E 135°27'0 0.0
2018-Jun-18 19:58N 34°35' E 135°27'0 0.1
2018-Jun-18 19:27N 34°35' E 135°27'1 1.9
2018-Jun-18 18:48N 34°36' E 135°25'3 9.1
2018-Jun-18 18:29N 34°36' E 135°22'510.0
2018-Jun-18 17:58N 34°36' E 135°16'510.1
2018-Jun-18 17:31N 34°35' E 135°10'5 9.6
2018-Jun-18 17:00N 34°35' E 135°04'4 7.6
2018-Jun-18 16:30N 34°37' E 135°01'4 8.7
2018-Jun-18 16:00N 34°36' E 134°56'4 7.8
2018-Jun-18 15:30N 34°38' E 134°51'4 8.9
2018-Jun-18 15:00N 34°40' E 134°46'9 0.5
2018-Jun-17 20:23N 34°43' E 134°36'1611.0
2018-Jun-17 18:53N 34°37' E 134°18'16 0.3
2018-Jun-15 17:08N 34°43' E 134°36'  
2018-Jun-11 07:45N 34°36' E 135°03'311.4
2018-Jun-11 07:30N 34°36' E 135°07'510.6
2018-Jun-11 07:00N 34°34' E 135°13'510.5
2018-Jun-11 06:30N 34°33' E 135°19'5 8.9
2018-Jun-11 06:00N 34°31' E 135°24'0 0.0
2018-Jun-11 05:30N 34°31' E 135°24'0 0.0
2018-Jun-11 05:00N 34°31' E 135°24'0 0.0
2018-Jun-11 04:30N 34°31' E 135°24'0 0.0
2018-Jun-11 03:58N 34°31' E 135°24'2 2.8
2018-Jun-11 03:21N 34°32' E 135°23'1 3.0
2018-Jun-11 03:00N 34°34' E 135°23'3 5.7
2018-Jun-11 02:30N 34°36' E 135°25'1 0.3
2018-Jun-10 22:42N 34°35' E 135°26'2 8.1
2018-Jun-10 22:28N 34°36' E 135°24'3 7.0
2018-Jun-10 22:00N 34°33' E 135°23'2 0.1
2018-Jun-10 02:17N 34°31' E 135°24'1 1.8
2018-Jun-10 01:51N 34°31' E 135°23'3 8.3
2018-Jun-10 01:29N 34°33' E 135°20'5 9.7
2018-Jun-10 01:01N 34°33' E 135°14'510.0
2018-Jun-10 00:31N 34°34' E 135°08'510.1
2018-Jun-09 23:59N 34°36' E 135°02'510.0
2018-Jun-09 23:27N 34°37' E 134°56'510.0
2018-Jun-09 23:00N 34°38' E 134°51'5 9.9
2018-Jun-09 22:30N 34°41' E 134°46'8 0.6
2018-Jun-09 10:20N 34°38' E 134°54'611.8
2018-Jun-09 09:50N 34°37' E 135°01'411.0
2018-Jun-09 09:30N 34°36' E 135°05'611.3
2018-Jun-09 09:00N 34°37' E 135°12'511.0
2018-Jun-09 08:30N 34°38' E 135°19'510.4
2018-Jun-09 08:00N 34°39' E 135°25'2 3.5
2018-Jun-09 07:23N 34°39' E 135°28'0 0.0
2018-Jun-09 06:59N 34°39' E 135°28'0 0.0
2018-Jun-09 06:30N 34°39' E 135°28'0 0.0
2018-Jun-09 06:00N 34°39' E 135°28'0 0.0
2018-Jun-09 05:30N 34°39' E 135°28'0 0.0
2018-Jun-09 05:00N 34°39' E 135°28'0 0.0
2018-Jun-09 04:30N 34°39' E 135°28'0 0.0
2018-Jun-09 04:00N 34°39' E 135°28'0 0.0
2018-Jun-09 03:30N 34°39' E 135°28'0 0.0
2018-Jun-09 03:00N 34°39' E 135°28'0 0.0
2018-Jun-09 02:30N 34°39' E 135°28'0 0.0
2018-Jun-09 02:00N 34°39' E 135°28'0 0.0
2018-Jun-09 01:30N 34°39' E 135°28'0 0.0
2018-Jun-09 01:00N 34°39' E 135°28'0 0.0
2018-Jun-09 00:29N 34°39' E 135°28'0 0.0
2018-Jun-09 00:00N 34°39' E 135°28'0 0.0
2018-Jun-08 23:30N 34°39' E 135°28'0 0.0
2018-Jun-08 23:00N 34°39' E 135°28'2 3.3
2018-Jun-08 22:30N 34°39' E 135°26'  
Track history (hours):
 
Tides and Currents Weather Stations Pressure Air Temp Water Temp Dewpoint Dewpoint Depression Visibility Wind Speed Wind Dir Waves Ship Positions

Yuukimaru No.8

Last reported at 2018-Jun-18 22:29 UTC. Time now 2018-Jun-18 22:39 UTC.
Position N 34°35' E 135°27'.

Length 75 m; draft 4.7 m.

Type: Ship (hazmat cat D). MMSI: 431000298.

Date/timePositionNaut miles runAvg speedWind from/ knotsBaromVisibWave heightAir tempDewpointWater temp
2018-Jun-18 22:29N 34°35' E 135°27'0 0.0
2018-Jun-18 22:00N 34°35' E 135°27'0 0.0
2018-Jun-18 21:30N 34°35' E 135°27'0 0.0
2018-Jun-18 21:00N 34°35' E 135°27'0 0.0
2018-Jun-18 20:30N 34°35' E 135°27'0 0.0
2018-Jun-18 19:58N 34°35' E 135°27'0 0.1
2018-Jun-18 19:27N 34°35' E 135°27'1 1.9
2018-Jun-18 18:48N 34°36' E 135°25'3 9.1
2018-Jun-18 18:29N 34°36' E 135°22'510.0
2018-Jun-18 17:58N 34°36' E 135°16'510.1
2018-Jun-18 17:31N 34°35' E 135°10'5 9.6
2018-Jun-18 17:00N 34°35' E 135°04'4 7.6
2018-Jun-18 16:30N 34°37' E 135°01'4 8.7
2018-Jun-18 16:00N 34°36' E 134°56'4 7.8
2018-Jun-18 15:30N 34°38' E 134°51'4 8.9
2018-Jun-18 15:00N 34°40' E 134°46'9 0.5
2018-Jun-17 20:23N 34°43' E 134°36'1611.0
2018-Jun-17 18:53N 34°37' E 134°18'16 0.3
2018-Jun-15 17:08N 34°43' E 134°36'  
2018-Jun-11 07:45N 34°36' E 135°03'311.4
2018-Jun-11 07:30N 34°36' E 135°07'510.6
2018-Jun-11 07:00N 34°34' E 135°13'510.5
2018-Jun-11 06:30N 34°33' E 135°19'5 8.9
2018-Jun-11 06:00N 34°31' E 135°24'0 0.0
2018-Jun-11 05:30N 34°31' E 135°24'0 0.0
2018-Jun-11 05:00N 34°31' E 135°24'0 0.0
2018-Jun-11 04:30N 34°31' E 135°24'0 0.0
2018-Jun-11 03:58N 34°31' E 135°24'2 2.8
2018-Jun-11 03:21N 34°32' E 135°23'1 3.0
2018-Jun-11 03:00N 34°34' E 135°23'3 5.7
2018-Jun-11 02:30N 34°36' E 135°25'1 0.3
2018-Jun-10 22:42N 34°35' E 135°26'2 8.1
2018-Jun-10 22:28N 34°36' E 135°24'3 7.0
2018-Jun-10 22:00N 34°33' E 135°23'2 0.1
2018-Jun-10 02:17N 34°31' E 135°24'1 1.8
2018-Jun-10 01:51N 34°31' E 135°23'3 8.3
2018-Jun-10 01:29N 34°33' E 135°20'5 9.7
2018-Jun-10 01:01N 34°33' E 135°14'510.0
2018-Jun-10 00:31N 34°34' E 135°08'510.1
2018-Jun-09 23:59N 34°36' E 135°02'510.0
2018-Jun-09 23:27N 34°37' E 134°56'510.0
2018-Jun-09 23:00N 34°38' E 134°51'5 9.9
2018-Jun-09 22:30N 34°41' E 134°46'8 0.6
2018-Jun-09 10:20N 34°38' E 134°54'611.8
2018-Jun-09 09:50N 34°37' E 135°01'411.0
2018-Jun-09 09:30N 34°36' E 135°05'611.3
2018-Jun-09 09:00N 34°37' E 135°12'511.0
2018-Jun-09 08:30N 34°38' E 135°19'510.4
2018-Jun-09 08:00N 34°39' E 135°25'2 3.5
2018-Jun-09 07:23N 34°39' E 135°28'0 0.0
2018-Jun-09 06:59N 34°39' E 135°28'0 0.0
2018-Jun-09 06:30N 34°39' E 135°28'0 0.0
2018-Jun-09 06:00N 34°39' E 135°28'0 0.0
2018-Jun-09 05:30N 34°39' E 135°28'0 0.0
2018-Jun-09 05:00N 34°39' E 135°28'0 0.0
2018-Jun-09 04:30N 34°39' E 135°28'0 0.0
2018-Jun-09 04:00N 34°39' E 135°28'0 0.0
2018-Jun-09 03:30N 34°39' E 135°28'0 0.0
2018-Jun-09 03:00N 34°39' E 135°28'0 0.0
2018-Jun-09 02:30N 34°39' E 135°28'0 0.0
2018-Jun-09 02:00N 34°39' E 135°28'0 0.0
2018-Jun-09 01:30N 34°39' E 135°28'0 0.0
2018-Jun-09 01:00N 34°39' E 135°28'0 0.0
2018-Jun-09 00:29N 34°39' E 135°28'0 0.0
2018-Jun-09 00:00N 34°39' E 135°28'0 0.0
2018-Jun-08 23:30N 34°39' E 135°28'0 0.0
2018-Jun-08 23:00N 34°39' E 135°28'2 3.3
2018-Jun-08 22:30N 34°39' E 135°26'  

Dump ship's entire track history